Time;durP1;ratioP1;P1;durP2;ratioP2;P2;SDS_P1;SDS_P2;PMS_P1;PMS_P2;Temp;Humidity;BMP_temperature;BMP_pressure;BME280_temperature;BME280_humidity;BME280_pressure;Samples;Min_cycle;Max_cycle;Signal;HPM_P1;HPM_P2
2022/06/28 00:01:40;;;;;;;8.10;5.27;;;21.10;99.90;20.50;100421;;;;570566;248;23224;-85
2022/06/28 00:04:05;;;;;;;8.37;5.37;;;21.00;99.90;20.40;100413;;;;570397;248;24110;-82
2022/06/28 00:06:33;;;;;;;6.80;5.27;;;21.00;99.90;20.40;100418;;;;568604;248;24103;-81
2022/06/28 00:09:00;;;;;;;5.50;5.00;;;20.90;99.90;20.30;100417;;;;570554;248;23105;-84
2022/06/28 00:11:28;;;;;;;8.57;5.03;;;20.80;99.90;20.20;100413;;;;570511;248;24136;-84
2022/06/28 00:13:56;;;;;;;6.78;6.18;;;20.80;99.90;20.20;100412;;;;565772;248;35339;-81
2022/06/28 00:16:24;;;;;;;6.17;5.67;;;20.70;99.90;20.10;100420;;;;570668;248;23109;-85
2022/06/28 00:18:52;;;;;;;7.93;5.40;;;20.70;99.90;20.10;100420;;;;568704;248;23103;-83
2022/06/28 00:21:20;;;;;;;5.80;5.40;;;20.60;99.90;20.10;100417;;;;569944;247;23108;-82
2022/06/28 00:23:48;;;;;;;5.80;5.30;;;20.60;99.90;20.10;100417;;;;569759;248;24141;-82
2022/06/28 00:26:16;;;;;;;5.73;5.23;;;20.60;99.90;20.10;100417;;;;569563;248;23069;-83
2022/06/28 00:28:44;;;;;;;6.13;5.30;;;20.60;99.90;20.10;100417;;;;571440;248;23106;-83
2022/06/28 00:31:16;;;;;;;9.60;5.97;;;20.60;99.90;20.10;100414;;;;569023;248;24117;-81
2022/06/28 00:33:40;;;;;;;5.57;5.07;;;20.60;99.90;20.00;100413;;;;570072;248;24146;-79
2022/06/28 00:36:08;;;;;;;11.77;5.80;;;20.60;99.90;20.00;100415;;;;567902;248;24078;-78
2022/06/28 00:38:36;;;;;;;5.93;5.43;;;20.50;99.90;20.00;100418;;;;567625;248;23159;-78
2022/06/28 00:41:04;;;;;;;6.83;6.13;;;20.50;99.90;20.00;100423;;;;567778;248;23111;-78
2022/06/28 00:43:32;;;;;;;6.43;5.73;;;20.50;99.90;20.00;100421;;;;569761;248;23167;-78
2022/06/28 00:46:04;;;;;;;6.97;6.37;;;20.50;99.90;20.00;100421;;;;567682;248;24126;-79
2022/06/28 00:48:29;;;;;;;7.97;5.67;;;20.50;99.90;19.90;100417;;;;569523;248;24155;-79
2022/06/28 00:50:58;;;;;;;7.27;5.50;;;20.50;99.90;19.90;100423;;;;569731;248;24077;-77
2022/06/28 00:53:27;;;;;;;7.13;6.10;;;20.40;99.90;19.90;100426;;;;570056;248;23132;-77
2022/06/28 00:55:55;;;;;;;7.93;5.73;;;20.40;99.90;19.90;100421;;;;568364;248;24085;-77
2022/06/28 00:58:23;;;;;;;6.80;6.20;;;20.40;99.90;19.90;100422;;;;568291;248;24100;-76
2022/06/28 01:00:50;;;;;;;6.27;5.77;;;20.40;99.90;19.90;100413;;;;567933;248;24114;-77
2022/06/28 01:03:18;;;;;;;6.30;5.70;;;20.40;99.90;19.90;100411;;;;569750;248;24126;-81
2022/06/28 01:05:46;;;;;;;6.40;5.80;;;20.40;99.90;19.80;100416;;;;567773;248;24145;-84
2022/06/28 01:08:18;;;;;;;6.17;5.63;;;20.40;99.90;19.80;100415;;;;570432;248;23097;-85
2022/06/28 01:10:45;;;;;;;6.47;5.87;;;20.30;99.90;19.70;100419;;;;570677;248;23185;-84
2022/06/28 01:13:14;;;;;;;6.03;5.53;;;20.30;99.90;19.70;100423;;;;579366;246;23231;-80
2022/06/28 01:15:42;;;;;;;7.57;5.80;;;20.20;99.90;19.70;100420;;;;570586;248;24191;-83
2022/06/28 01:18:07;;;;;;;7.73;6.07;;;20.20;99.90;19.70;100422;;;;570648;248;24144;-79
2022/06/28 01:20:37;;;;;;;6.57;6.07;;;20.20;99.90;19.70;100415;;;;567319;248;24096;-78
2022/06/28 01:23:06;;;;;;;7.80;6.27;;;20.20;99.90;19.60;100411;;;;572646;248;23116;-78
2022/06/28 01:25:30;;;;;;;10.10;6.10;;;20.20;99.90;19.60;100414;;;;569908;248;24131;-77
2022/06/28 01:27:58;;;;;;;8.40;7.50;;;20.10;99.90;19.60;100412;;;;562823;248;35463;-78
2022/06/28 01:30:26;;;;;;;6.70;6.03;;;20.10;99.90;19.50;100414;;;;569824;248;23098;-78
2022/06/28 01:32:54;;;;;;;6.00;5.50;;;20.10;99.90;19.50;100417;;;;571580;247;23142;-80
2022/06/28 01:35:22;;;;;;;9.13;6.30;;;20.10;99.90;19.50;100416;;;;571004;248;24072;-80
2022/06/28 01:37:51;;;;;;;8.10;6.80;;;20.00;99.90;19.40;100417;;;;568063;248;24076;-78
2022/06/28 01:40:19;;;;;;;6.77;5.80;;;20.00;99.90;19.40;100416;;;;570116;248;24206;-79
2022/06/28 01:42:48;;;;;;;6.70;6.10;;;19.90;99.90;19.50;100410;;;;567954;248;24087;-78
2022/06/28 01:45:19;;;;;;;7.90;6.77;;;19.90;99.90;19.40;100397;;;;568254;248;24105;-80
2022/06/28 01:47:49;;;;;;;7.67;7.03;;;19.90;99.90;19.40;100407;;;;578785;247;23164;-80
2022/06/28 01:50:13;;;;;;;7.87;6.93;;;19.90;99.90;19.40;100406;;;;569469;248;27358;-78
2022/06/28 01:52:41;;;;;;;7.20;6.60;;;19.80;99.90;19.30;100402;;;;567734;248;24076;-78
2022/06/28 01:55:13;;;;;;;7.20;6.60;;;19.90;99.90;19.30;100393;;;;570259;248;24115;-78
2022/06/28 01:57:37;;;;;;;6.83;6.23;;;19.80;99.90;19.30;100406;;;;569933;248;24104;-77
2022/06/28 02:00:05;;;;;;;11.40;6.90;;;19.80;99.90;19.30;100402;;;;569889;248;24085;-79
2022/06/28 02:02:33;;;;;;;7.00;6.30;;;19.80;99.90;19.30;100408;;;;570055;248;24075;-77
2022/06/28 02:05:01;;;;;;;9.03;6.60;;;19.80;99.90;19.20;100409;;;;567865;248;23162;-77
2022/06/28 02:07:29;;;;;;;7.77;7.17;;;19.70;99.90;19.10;100409;;;;567808;248;24111;-77
2022/06/28 02:09:59;;;;;;;8.57;7.67;;;19.70;99.90;19.10;100403;;;;567626;248;24125;-78
2022/06/28 02:12:28;;;;;;;9.43;6.63;;;19.60;99.90;19.10;100410;;;;567545;248;25158;-78
2022/06/28 02:14:57;;;;;;;7.87;6.90;;;19.70;99.90;19.10;100411;;;;567507;248;24151;-79
2022/06/28 02:17:25;;;;;;;8.00;7.20;;;19.70;99.90;19.20;100421;;;;569740;248;24067;-79
2022/06/28 02:19:54;;;;;;;7.87;7.10;;;19.70;99.90;19.20;100422;;;;569755;248;24136;-78
2022/06/28 02:22:21;;;;;;;8.40;7.27;;;19.70;99.90;19.30;100421;;;;567487;248;24157;-78
2022/06/28 02:24:51;;;;;;;7.77;6.87;;;19.80;99.90;19.40;100423;;;;567542;248;24168;-78
2022/06/28 02:27:17;;;;;;;9.93;7.90;;;19.90;99.90;19.40;100423;;;;567452;248;24144;-77
2022/06/28 02:29:45;;;;;;;11.47;7.30;;;19.90;99.90;19.50;100422;;;;567590;248;24142;-78
2022/06/28 02:32:14;;;;;;;8.50;7.80;;;20.00;99.90;19.50;100423;;;;567603;248;24149;-78
2022/06/28 02:40:22;;;;;;;13.90;8.23;;;20.00;99.90;19.50;100423;;;;569656;248;26325;-78
2022/06/28 02:42:53;;;;;;;8.63;7.87;;;20.00;99.90;19.50;100416;;;;569643;246;24121;-80
2022/06/28 02:45:21;;;;;;;8.50;7.30;;;20.00;99.90;19.50;100420;;;;569975;248;26267;-77
2022/06/28 02:47:50;;;;;;;13.80;8.03;;;20.00;99.90;19.50;100421;;;;570224;248;23126;-77
2022/06/28 02:50:22;;;;;;;8.23;7.53;;;20.00;99.90;19.50;100418;;;;569925;248;24091;-78
2022/06/28 02:52:46;;;;;;;8.83;8.13;;;20.00;99.90;19.50;100413;;;;570119;248;23120;-79
2022/06/28 02:55:14;;;;;;;10.17;8.20;;;20.00;99.90;19.50;100417;;;;570221;248;24125;-78
2022/06/28 02:57:46;;;;;;;9.40;7.50;;;20.00;99.90;19.50;100424;;;;567802;248;24136;-79
2022/06/28 03:00:10;;;;;;;9.60;7.77;;;20.00;99.90;19.60;100420;;;;569638;248;24138;-78
2022/06/28 03:02:38;;;;;;;9.23;7.73;;;20.00;99.90;19.60;100422;;;;567116;248;24092;-78
2022/06/28 03:05:09;;;;;;;13.27;8.10;;;20.10;99.90;19.60;100412;;;;569764;248;24135;-78
2022/06/28 03:07:37;;;;;;;9.70;7.53;;;20.10;99.90;19.60;100415;;;;578369;248;24093;-78
2022/06/28 03:10:05;;;;;;;7.80;7.13;;;20.10;99.90;19.70;100414;;;;569814;248;24088;-79
2022/06/28 03:12:33;;;;;;;8.77;7.87;;;20.20;99.90;19.70;100415;;;;569620;248;24184;-79
2022/06/28 03:15:01;;;;;;;12.53;8.17;;;20.20;99.90;19.90;100415;;;;569697;248;24123;-79
2022/06/28 03:17:29;;;;;;;10.43;7.93;;;20.30;99.90;20.20;100409;;;;569687;248;24090;-78
2022/06/28 03:19:57;;;;;;;9.07;8.25;;;20.60;99.90;20.70;100420;;;;562279;248;35313;-78
2022/06/28 03:22:25;;;;;;;8.83;7.90;;;21.10;99.90;21.20;100414;;;;567230;248;24074;-78
2022/06/28 03:24:53;;;;;;;8.87;7.10;;;21.50;99.90;21.60;100405;;;;567152;248;24133;-79
2022/06/28 03:27:21;;;;;;;7.20;6.60;;;22.00;99.90;22.10;100411;;;;567195;248;24125;-81
2022/06/28 03:29:51;;;;;;;7.60;6.93;;;23.00;99.90;22.50;100411;;;;567197;248;24119;-79
2022/06/28 03:32:18;;;;;;;7.33;6.73;;;23.10;99.90;22.50;100417;;;;567262;248;24081;-78
2022/06/28 03:34:47;;;;;;;9.07;6.63;;;23.00;99.90;22.30;100417;;;;569344;248;24121;-78
2022/06/28 03:37:15;;;;;;;11.63;7.00;;;23.00;99.90;22.20;100412;;;;567094;248;24186;-76
2022/06/28 03:39:43;;;;;;;10.00;8.53;;;22.80;99.90;22.00;100407;;;;567119;248;24089;-76
2022/06/28 03:42:10;;;;;;;8.87;7.90;;;22.70;99.90;22.50;100406;;;;567182;248;24105;-77
2022/06/28 03:44:38;;;;;;;8.43;7.73;;;22.90;99.90;23.20;100409;;;;569401;248;24078;-78
2022/06/28 03:47:06;;;;;;;8.53;6.73;;;23.50;99.90;23.90;100401;;;;567175;248;24092;-77
2022/06/28 03:49:34;;;;;;;7.73;6.93;;;24.30;99.90;24.70;100400;;;;567353;248;24148;-77
2022/06/28 03:52:02;;;;;;;7.47;6.33;;;25.00;99.90;25.20;100390;;;;567223;248;24117;-78
2022/06/28 03:54:30;;;;;;;7.37;6.70;;;25.60;99.90;25.80;100382;;;;570006;247;23125;-77
2022/06/28 03:56:58;;;;;;;7.50;6.80;;;26.20;99.90;26.30;100387;;;;569846;248;24122;-78
2022/06/28 03:59:26;;;;;;;7.80;7.00;;;26.70;99.90;26.70;100382;;;;569363;248;23136;-77
2022/06/28 04:01:54;;;;;;;7.93;7.33;;;27.30;99.90;27.10;100377;;;;571073;248;24112;-82
2022/06/28 04:04:22;;;;;;;7.37;6.87;;;27.70;99.90;27.60;100380;;;;564041;248;46272;-80
2022/06/28 04:06:50;;;;;;;7.47;6.43;;;28.20;99.90;28.00;100377;;;;568928;248;23090;-80
2022/06/28 04:09:18;;;;;;;7.10;6.50;;;28.60;99.90;28.60;100379;;;;570979;248;24152;-79
2022/06/28 04:11:45;;;;;;;6.85;6.30;;;29.10;99.90;29.10;100388;;;;567992;248;23098;-78
2022/06/28 04:14:13;;;;;;;7.22;6.07;;;29.70;99.90;29.90;100383;;;;567802;248;24110;-80
2022/06/28 04:16:41;;;;;;;12.68;6.25;;;30.50;98.80;30.30;100384;;;;569899;248;23132;-78
2022/06/28 04:19:10;;;;;;;12.57;6.03;;;31.50;94.80;30.80;100388;;;;578446;248;24176;-78
2022/06/28 04:21:38;;;;;;;6.22;5.65;;;31.40;94.70;31.40;100386;;;;569843;248;24131;-78
2022/06/28 04:24:06;;;;;;;7.00;6.25;;;32.00;92.30;31.80;100391;;;;567764;248;23147;-78
2022/06/28 04:26:34;;;;;;;6.05;5.55;;;32.50;90.50;32.30;100389;;;;569831;248;23111;-79
2022/06/28 04:29:02;;;;;;;5.50;4.97;;;33.40;84.10;32.60;100394;;;;569883;248;23152;-79
2022/06/28 04:31:30;;;;;;;6.35;5.75;;;33.30;84.10;33.10;100397;;;;568053;248;23104;-83
2022/06/28 04:33:58;;;;;;;6.28;5.75;;;33.80;80.60;33.40;100398;;;;568689;248;23161;-85
2022/06/28 04:36:27;;;;;;;6.37;5.78;;;34.60;75.20;33.90;100409;;;;570605;248;23170;-80
2022/06/28 04:38:56;;;;;;;7.72;5.87;;;35.10;72.70;34.20;100401;;;;567617;248;24089;-79
2022/06/28 04:41:26;;;;;;;8.73;5.87;;;35.00;72.60;34.50;100404;;;;567875;248;23133;-79
2022/06/28 04:43:53;;;;;;;5.93;5.37;;;35.30;70.80;34.70;100414;;;;568750;248;23184;-78
2022/06/28 04:46:22;;;;;;;9.25;5.53;;;35.60;69.60;35.20;100402;;;;569413;248;23142;-80
2022/06/28 04:48:50;;;;;;;7.35;5.45;;;36.10;66.80;35.60;100402;;;;569716;244;23146;-78
2022/06/28 04:51:18;;;;;;;6.18;5.43;;;36.50;64.90;35.90;100403;;;;567297;248;23129;-78
2022/06/28 04:53:46;;;;;;;6.18;5.32;;;36.80;63.50;36.30;100404;;;;569249;248;23104;-78
2022/06/28 04:56:14;;;;;;;5.82;5.35;;;37.20;62.50;37.10;100410;;;;569707;248;24135;-83
2022/06/28 04:58:41;;;;;;;5.12;4.68;;;37.90;61.00;37.60;100415;;;;571119;248;23192;-83
2022/06/28 05:01:09;;;;;;;9.48;5.50;;;38.40;59.50;38.40;100412;;;;570838;248;23100;-84
2022/06/28 05:03:38;;;;;;;8.15;5.20;;;39.20;57.80;39.00;100416;;;;570659;248;23101;-84
2022/06/28 05:06:05;;;;;;;10.30;5.65;;;39.80;56.40;39.50;100415;;;;568972;247;23133;-85
2022/06/28 05:08:36;;;;;;;10.10;6.12;;;40.40;54.80;40.10;100423;;;;571903;248;23081;-80
2022/06/28 05:11:01;;;;;;;5.70;4.93;;;40.90;53.90;40.60;100415;;;;571177;248;23107;-86
2022/06/28 05:13:29;;;;;;;4.62;4.32;;;41.40;51.90;40.90;100423;;;;571776;248;23157;-83
2022/06/28 05:15:57;;;;;;;5.87;5.22;;;41.70;51.00;41.30;100418;;;;569456;248;23069;-85
2022/06/28 05:18:28;;;;;;;5.57;5.07;;;42.00;49.80;41.40;100418;;;;569369;248;23100;-82
2022/06/28 05:20:53;;;;;;;5.20;4.70;;;42.20;50.00;42.00;100411;;;;579914;248;23160;-86
2022/06/28 05:23:21;;;;;;;9.18;5.18;;;42.80;49.60;41.40;100419;;;;569034;248;23091;-86
2022/06/28 05:25:49;;;;;;;8.02;5.05;;;42.40;48.70;40.50;100414;;;;568698;248;23082;-83
2022/06/28 05:28:17;;;;;;;7.03;5.72;;;41.60;48.70;39.70;100413;;;;568430;248;23113;-85
2022/06/28 05:30:44;;;;;;;10.85;5.62;;;40.80;49.60;38.60;100416;;;;568417;248;23089;-80
2022/06/28 05:33:13;;;;;;;7.90;6.18;;;38.60;51.80;37.40;100417;;;;568490;248;23135;-80
2022/06/28 05:35:41;;;;;;;5.57;5.03;;;38.60;51.80;37.20;100421;;;;568530;248;23082;-85
2022/06/28 05:38:09;;;;;;;8.65;5.35;;;38.00;53.30;37.60;100421;;;;570841;248;23104;-86
2022/06/28 05:40:37;;;;;;;9.75;6.03;;;38.10;53.70;38.60;100414;;;;568745;248;23095;-85
2022/06/28 05:43:05;;;;;;;8.65;5.07;;;38.80;53.20;39.40;100422;;;;570461;248;23124;-84
2022/06/28 05:45:33;;;;;;;10.25;6.37;;;39.70;52.10;40.00;100424;;;;568141;248;23150;-83
2022/06/28 05:48:01;;;;;;;6.62;5.60;;;40.40;51.00;39.70;100421;;;;567958;248;24134;-86
2022/06/28 05:50:29;;;;;;;9.32;5.15;;;39.30;50.90;38.30;100424;;;;567251;248;23141;-79
2022/06/28 05:52:57;;;;;;;8.68;6.80;;;39.30;50.90;36.80;100427;;;;567072;248;23084;-80
2022/06/28 05:55:25;;;;;;;7.20;6.00;;;38.00;52.50;35.70;100420;;;;569853;248;23101;-79
2022/06/28 05:57:55;;;;;;;12.85;5.85;;;36.70;54.60;35.60;100415;;;;567712;248;23142;-85
2022/06/28 06:00:21;;;;;;;7.50;6.05;;;36.30;55.80;34.90;100409;;;;567829;248;24175;-78
2022/06/28 06:02:49;;;;;;;7.18;5.87;;;35.60;56.80;34.20;100413;;;;569704;248;23130;-79
2022/06/28 06:05:17;;;;;;;7.53;5.80;;;34.90;58.10;33.50;100415;;;;567713;248;24136;-85
2022/06/28 06:07:45;;;;;;;8.13;6.07;;;34.20;59.30;33.00;100422;;;;567978;248;23092;-85
2022/06/28 06:10:13;;;;;;;6.95;6.12;;;33.60;60.70;32.40;100418;;;;569881;248;23122;-84
2022/06/28 06:12:41;;;;;;;6.40;5.85;;;32.90;62.30;31.80;100416;;;;569709;248;24120;-81
2022/06/28 06:15:09;;;;;;;7.30;6.07;;;32.30;64.70;31.30;100423;;;;567902;248;24118;-82
2022/06/28 06:17:36;;;;;;;9.40;5.97;;;31.70;65.70;30.80;100429;;;;570604;246;23091;-78
2022/06/28 06:20:09;;;;;;;18.00;7.32;;;30.70;69.60;30.40;100430;;;;571685;248;24096;-81
2022/06/28 06:22:33;;;;;;;9.32;6.30;;;30.60;69.50;30.00;100433;;;;570695;248;23134;-82
2022/06/28 06:25:01;;;;;;;6.85;5.95;;;30.20;71.00;29.60;100435;;;;570760;248;23104;-82
2022/06/28 06:27:29;;;;;;;7.90;5.90;;;29.90;72.50;29.30;100442;;;;570963;248;23101;-85
2022/06/28 06:29:58;;;;;;;6.95;6.40;;;29.60;73.50;29.00;100446;;;;570676;248;23124;-78
2022/06/28 06:32:27;;;;;;;10.07;6.37;;;29.30;74.80;28.70;100447;;;;568512;248;23102;-79
2022/06/28 06:34:54;;;;;;;9.77;7.03;;;28.90;75.80;28.40;100436;;;;567988;248;24179;-78
2022/06/28 06:37:23;;;;;;;8.95;7.05;;;28.40;79.00;28.20;100433;;;;568026;248;23109;-79
2022/06/28 06:39:53;;;;;;;8.17;6.60;;;28.30;80.70;28.00;100428;;;;568179;248;23081;-78
2022/06/28 06:42:21;;;;;;;12.37;7.20;;;28.20;80.60;27.90;100433;;;;570137;248;23144;-77
2022/06/28 06:44:49;;;;;;;9.73;6.23;;;28.20;82.10;27.90;100433;;;;569815;248;23175;-79
2022/06/28 06:47:17;;;;;;;7.10;6.40;;;28.20;85.10;28.00;100443;;;;569788;248;24097;-77
2022/06/28 06:49:45;;;;;;;7.70;6.17;;;28.20;84.20;28.10;100454;;;;567672;248;23115;-79
2022/06/28 06:52:13;;;;;;;8.00;5.50;;;28.40;84.60;28.10;100458;;;;567613;248;23105;-76
2022/06/28 06:54:41;;;;;;;8.43;6.33;;;28.50;84.80;28.10;100456;;;;567719;248;23101;-77
2022/06/28 06:57:09;;;;;;;8.00;6.87;;;28.40;86.10;27.90;100444;;;;567855;248;24113;-77
2022/06/28 06:59:37;;;;;;;16.70;6.87;;;28.30;86.00;27.80;100451;;;;568121;248;23101;-76
2022/06/28 07:02:06;;;;;;;10.40;6.90;;;28.10;87.50;27.70;100451;;;;568581;248;23128;-80
2022/06/28 07:04:35;;;;;;;8.57;6.57;;;28.10;88.70;27.60;100454;;;;568506;248;23120;-80
2022/06/28 07:07:03;;;;;;;11.07;7.10;;;28.00;90.20;27.50;100445;;;;568480;248;23128;-78
2022/06/28 07:09:31;;;;;;;11.77;7.40;;;27.90;91.00;27.30;100456;;;;569913;248;23090;-77
2022/06/28 07:12:00;;;;;;;12.57;7.53;;;27.70;91.90;27.20;100456;;;;570370;248;23149;-78
2022/06/28 07:14:29;;;;;;;8.97;6.70;;;27.60;92.50;27.00;100458;;;;569989;248;24132;-78
2022/06/28 07:16:57;;;;;;;9.67;6.67;;;27.50;92.60;26.90;100462;;;;569777;248;23101;-77
2022/06/28 07:19:25;;;;;;;9.70;6.80;;;27.20;94.10;26.80;100452;;;;567471;248;23160;-77
2022/06/28 07:21:53;;;;;;;10.67;7.20;;;27.20;94.10;26.80;100444;;;;569549;248;23125;-76
2022/06/28 07:24:21;;;;;;;7.80;7.03;;;27.20;95.50;26.80;100444;;;;567382;248;23090;-77
2022/06/28 07:26:49;;;;;;;11.63;7.20;;;27.10;96.40;26.80;100458;;;;567308;248;23087;-80
2022/06/28 07:29:17;;;;;;;9.40;7.03;;;27.20;96.90;26.90;100456;;;;568207;247;23096;-78
2022/06/28 07:31:45;;;;;;;7.90;7.03;;;27.30;97.30;27.00;100460;;;;571469;248;24139;-79
2022/06/28 07:34:13;;;;;;;8.93;6.80;;;27.40;97.60;27.10;100473;;;;569060;248;24111;-78
2022/06/28 07:36:46;;;;;;;10.30;7.23;;;27.50;97.50;27.10;100474;;;;569363;248;23097;-78
2022/06/28 07:39:12;;;;;;;10.70;8.03;;;27.50;97.30;27.00;100483;;;;571004;248;23176;-80
2022/06/28 07:41:40;;;;;;;14.00;8.40;;;27.50;97.80;26.90;100493;;;;570888;248;23094;-81
2022/06/28 07:44:08;;;;;;;18.07;9.43;;;27.40;99.20;26.70;100503;;;;570781;248;23145;-82
2022/06/28 07:46:36;;;;;;;20.27;8.53;;;27.20;99.90;26.50;100514;;;;568403;248;23114;-80
2022/06/28 07:49:07;;;;;;;16.80;8.50;;;27.10;99.90;26.40;100520;;;;568255;244;24202;-77
2022/06/28 07:54:20;;;;;;;24.90;9.70;;;26.80;99.90;26.30;100501;;;;570737;248;23168;-82
2022/06/28 07:56:48;;;;;;;16.30;8.27;;;26.80;99.90;26.40;100502;;;;568290;248;23111;-78
2022/06/28 07:59:18;;;;;;;28.10;13.30;;;26.80;99.90;26.40;100509;;;;578919;248;23137;-78
2022/06/28 08:01:44;;;;;;;13.63;8.10;;;26.80;99.90;26.40;100496;;;;570229;248;27388;-78
2022/06/28 08:04:14;;;;;;;14.83;8.30;;;26.90;99.90;26.50;100503;;;;577716;248;23195;-77
2022/06/28 08:06:40;;;;;;;13.17;8.17;;;26.90;99.90;26.50;100506;;;;567207;248;23110;-78
2022/06/28 08:09:08;;;;;;;12.70;7.67;;;27.00;99.90;26.50;100511;;;;569578;248;23105;-76
2022/06/28 08:11:39;;;;;;;15.20;8.77;;;27.00;99.90;26.60;100507;;;;567373;248;24115;-78
2022/06/28 08:14:04;;;;;;;15.43;8.37;;;27.00;99.90;26.70;100517;;;;569498;248;23098;-77
2022/06/28 08:16:37;;;;;;;9.27;8.17;;;27.10;99.90;26.70;100526;;;;569559;248;23107;-79
2022/06/28 08:19:01;;;;;;;9.83;7.47;;;27.20;99.90;26.80;100520;;;;569304;248;23099;-77
2022/06/28 08:21:30;;;;;;;9.10;7.70;;;27.30;99.90;26.90;100531;;;;567983;248;23130;-76
2022/06/28 08:23:58;;;;;;;9.00;8.07;;;27.30;99.90;27.00;100526;;;;567921;248;23189;-77
2022/06/28 08:26:26;;;;;;;11.23;8.40;;;27.30;99.90;27.00;100531;;;;568043;248;23141;-78
2022/06/28 08:28:54;;;;;;;9.03;8.20;;;27.40;99.90;27.10;100540;;;;569855;248;23133;-79
2022/06/28 08:31:22;;;;;;;10.00;7.97;;;27.50;99.90;27.20;100535;;;;567441;248;24089;-80
2022/06/28 08:33:50;;;;;;;8.53;7.70;;;27.60;99.90;27.30;100533;;;;569740;248;23142;-83
2022/06/28 08:36:18;;;;;;;8.80;7.87;;;27.70;99.90;27.40;100533;;;;567854;248;23106;-81
2022/06/28 08:38:45;;;;;;;8.87;7.60;;;27.70;99.90;27.40;100535;;;;568019;248;23098;-79
2022/06/28 08:41:13;;;;;;;8.23;7.43;;;27.80;99.90;27.60;100540;;;;567736;247;23159;-79
2022/06/28 08:43:41;;;;;;;9.97;8.90;;;27.90;99.90;27.80;100545;;;;571300;248;23126;-78
2022/06/28 08:46:09;;;;;;;8.37;7.63;;;28.10;99.90;27.90;100544;;;;570590;248;24265;-77
2022/06/28 08:48:40;;;;;;;7.93;7.28;;;28.20;99.90;28.50;100532;;;;578963;248;24218;-82
2022/06/28 08:51:11;;;;;;;8.30;7.40;;;28.70;99.90;29.20;100537;;;;569542;248;23098;-77
2022/06/28 08:53:36;;;;;;;9.63;7.65;;;29.50;99.90;29.60;100543;;;;569897;248;23145;-83
2022/06/28 08:56:05;;;;;;;11.30;7.60;;;30.00;98.80;29.90;100538;;;;578834;248;23121;-82
2022/06/28 08:58:31;;;;;;;10.30;7.78;;;30.20;97.90;30.90;100538;;;;570079;248;23115;-80
2022/06/28 09:00:59;;;;;;;8.23;6.55;;;31.00;97.40;32.70;100537;;;;570384;248;24106;-80
2022/06/28 09:03:27;;;;;;;9.45;7.25;;;32.70;94.10;34.30;100526;;;;567873;248;23149;-83
2022/06/28 09:05:55;;;;;;;12.77;6.87;;;34.20;90.80;36.40;100526;;;;578778;248;23218;-79
2022/06/28 09:08:23;;;;;;;7.75;6.62;;;36.40;83.20;38.40;100527;;;;570101;248;23107;-80
2022/06/28 09:10:51;;;;;;;10.02;8.68;;;38.40;72.50;40.40;100531;;;;568375;248;23097;-84
2022/06/28 09:13:20;;;;;;;8.48;7.55;;;40.40;66.50;41.60;100527;;;;568154;248;23078;-82
2022/06/28 09:15:50;;;;;;;10.40;8.07;;;41.90;61.20;42.00;100533;;;;570117;248;23174;-79
2022/06/28 09:18:18;;;;;;;7.82;6.78;;;43.10;54.90;42.20;100533;;;;569778;248;23149;-78
2022/06/28 09:20:47;;;;;;;10.75;6.70;;;43.60;52.30;42.70;100545;;;;570057;248;23094;-79
2022/06/28 09:23:30;;;;;;;8.30;7.57;;;43.40;52.10;43.30;100545;;;;569597;248;23107;-82
2022/06/28 09:25:58;;;;;;;7.95;7.30;;;44.10;50.70;43.10;100541;;;;578788;248;23176;-80
2022/06/28 09:28:29;;;;;;;9.02;7.47;;;44.40;49.50;44.50;100551;;;;569734;248;23213;-81
2022/06/28 09:31:15;;;;;;;10.07;7.25;;;45.10;48.80;46.10;100554;;;;570395;248;23100;-80
2022/06/28 09:33:40;;;;;;;8.65;6.55;;;46.70;46.40;47.20;100558;;;;568716;248;23119;-81
2022/06/28 09:36:10;;;;;;;7.65;6.72;;;47.90;45.00;47.50;100572;;;;570117;248;23127;-79
2022/06/28 09:38:38;;;;;;;7.90;7.30;;;48.60;44.10;47.30;100574;;;;570061;248;23121;-79
2022/06/28 09:41:06;;;;;;;9.57;7.95;;;48.50;43.20;47.10;100577;;;;568018;248;23129;-79
2022/06/28 09:43:34;;;;;;;11.60;8.52;;;48.30;44.30;47.60;100583;;;;575166;248;23129;-79
2022/06/28 09:46:05;;;;;;;12.02;9.07;;;48.60;43.80;47.50;100588;;;;570138;248;24133;-79
2022/06/28 09:48:38;;;;;;;9.70;8.90;;;48.40;42.80;47.10;100597;;;;570179;248;23075;-83
2022/06/28 09:51:07;;;;;;;12.85;8.75;;;48.40;42.80;46.50;100599;;;;578601;244;23116;-82
2022/06/28 09:53:42;;;;;;;9.15;8.25;;;47.90;42.80;45.80;100606;;;;568890;247;23107;-80
2022/06/28 09:56:06;;;;;;;10.88;8.95;;;47.20;43.60;45.40;100620;;;;570789;248;23220;-81
2022/06/28 09:58:30;;;;;;;10.60;8.55;;;46.60;44.10;45.20;100614;;;;570389;248;23093;-78
2022/06/28 10:00:59;;;;;;;9.65;8.68;;;46.70;43.70;45.90;100624;;;;579290;248;23127;-79
2022/06/28 10:03:28;;;;;;;14.05;8.55;;;47.30;43.20;46.40;100623;;;;572799;248;23160;-78
2022/06/28 10:06:01;;;;;;;9.27;8.38;;;47.50;42.80;46.40;100622;;;;568192;248;23117;-79
2022/06/28 10:08:26;;;;;;;7.82;7.10;;;47.50;42.70;45.80;100633;;;;570547;248;23098;-80
2022/06/28 10:10:54;;;;;;;8.68;7.72;;;47.30;43.00;44.70;100632;;;;570412;248;23130;-80
2022/06/28 10:16:11;;;;;;;8.52;7.62;;;44.90;45.20;41.70;100615;;;;564902;248;46249;-80
2022/06/28 10:18:39;;;;;;;8.02;7.45;;;43.20;47.40;40.90;100608;;;;577483;248;23181;-80
2022/06/28 10:21:07;;;;;;;7.20;6.50;;;42.20;48.90;40.70;100603;;;;569960;248;24169;-79
2022/06/28 10:23:39;;;;;;;7.70;6.80;;;41.60;49.70;40.30;100592;;;;567914;248;23173;-83
2022/06/28 10:26:14;;;;;;;7.40;6.75;;;41.20;50.50;39.60;100576;;;;569069;248;23092;-78
2022/06/28 10:29:01;;;;;;;8.25;6.53;;;40.70;51.30;39.20;100580;;;;569991;248;23101;-80
2022/06/28 10:31:30;;;;;;;6.93;6.20;;;40.10;52.50;38.60;100570;;;;575801;248;23123;-78
2022/06/28 10:33:57;;;;;;;8.23;6.05;;;39.50;53.30;38.40;100576;;;;569625;248;23095;-80
2022/06/28 10:36:24;;;;;;;8.25;5.97;;;39.10;54.60;37.70;100572;;;;569490;248;23102;-78
2022/06/28 10:39:08;;;;;;;9.65;6.10;;;37.60;57.00;36.60;100562;;;;569483;248;23105;-78
2022/06/28 10:41:44;;;;;;;9.45;6.45;;;37.50;56.30;35.20;100562;;;;569198;248;23112;-80
2022/06/28 10:44:15;;;;;;;6.97;6.30;;;36.20;58.30;34.00;100573;;;;570089;248;23126;-78
2022/06/28 10:46:41;;;;;;;13.02;6.45;;;35.00;61.20;33.40;100573;;;;578199;244;23144;-78
2022/06/28 10:49:09;;;;;;;9.13;6.90;;;33.60;65.60;33.00;100583;;;;569455;244;23177;-80
2022/06/28 10:51:37;;;;;;;7.82;7.03;;;33.30;67.10;32.60;100589;;;;577799;248;23083;-80
2022/06/28 10:54:06;;;;;;;10.15;6.00;;;33.00;68.20;32.40;100612;;;;569357;248;23099;-77
2022/06/28 10:56:40;;;;;;;7.43;6.35;;;32.90;68.10;32.10;100598;;;;569503;248;23109;-78
2022/06/28 10:59:05;;;;;;;8.48;6.00;;;32.70;69.20;31.80;100619;;;;569560;248;23099;-76
2022/06/28 11:01:51;;;;;;;6.55;5.93;;;32.40;70.20;31.40;100609;;;;568777;248;23098;-80
2022/06/28 11:04:22;;;;;;;10.68;6.55;;;32.00;71.40;31.00;100620;;;;570382;247;23149;-79
2022/06/28 11:07:23;;;;;;;8.50;6.18;;;31.60;73.20;30.80;100612;;;;571021;248;23098;-78
2022/06/28 11:10:00;;;;;;;8.23;6.32;;;31.30;74.60;30.60;100619;;;;568803;248;23094;-79
2022/06/28 11:12:37;;;;;;;9.95;6.85;;;31.00;76.20;30.30;100629;;;;579258;248;24117;-78
2022/06/28 11:15:28;;;;;;;10.88;7.60;;;30.80;76.90;30.00;100616;;;;570013;248;23095;-78
2022/06/28 11:17:56;;;;;;;8.60;7.65;;;30.50;78.80;29.60;100624;;;;570532;248;23123;-81
2022/06/28 11:20:28;;;;;;;12.98;7.57;;;30.20;81.10;29.20;100639;;;;570691;248;24150;-76
2022/06/28 11:22:55;;;;;;;13.98;7.97;;;29.90;83.10;28.70;100646;;;;570415;248;23161;-79
2022/06/28 11:25:23;;;;;;;9.73;6.67;;;29.40;85.40;28.20;100655;;;;568540;248;23078;-81